Time;durP1;ratioP1;P1;durP2;ratioP2;P2;SDS_P1;SDS_P2;PMS_P1;PMS_P2;Temp;Humidity;BMP_temperature;BMP_pressure;BME280_temperature;BME280_humidity;BME280_pressure;Samples;Min_cycle;Max_cycle;Signal;HPM_P1;HPM_P2
2023/01/21 00:01:49;;;;;;;;;;;;;;;;;;4995693;28;7458;-67
2023/01/21 00:04:15;;;;;;;;;;;;;;;;;;4993913;28;6925;-67
2023/01/21 00:13:18;;;;;;;;;;;;;;;;;;4976069;28;6677;-67
2023/01/21 00:15:44;;;;;;;;;;;;;;;;;;4976268;28;7835;-67
2023/01/21 00:18:11;;;;;;;;;;;;;;;;;;4976284;28;6821;-67
2023/01/21 00:20:37;;;;;;;;;;;;;;;;;;4975848;28;6958;-67
2023/01/21 00:23:03;;;;;;;;;;;;;;;;;;4976160;28;7195;-67
2023/01/21 00:25:30;;;;;;;;;;;;;;;;;;4976143;28;7120;-67
2023/01/21 00:28:06;;;;;;;;;;;;;;;;;;4976060;28;7139;-67
2023/01/21 00:30:32;;;;;;;;;;;;;;;;;;4976042;28;7322;-67
2023/01/21 00:32:57;;;;;;;;;;;;;;;;;;4976072;28;7161;-67
2023/01/21 00:35:23;;;;;;;;;;;;;;;;;;4976012;28;7154;-67
2023/01/21 00:37:50;;;;;;;;;;;;;;;;;;4975938;28;7674;-67
2023/01/21 00:40:15;;;;;;;;;;;;;;;;;;4975922;28;7013;-67
2023/01/21 00:42:41;;;;;;;;;;;;;;;;;;4975550;28;7103;-67
2023/01/21 00:45:07;;;;;;;;;;;;;;;;;;4975805;28;7102;-67
2023/01/21 00:47:33;;;;;;;;;;;;;;;;;;4975932;28;7196;-67
2023/01/21 00:49:58;;;;;;;;;;;;;;;;;;4975070;28;7314;-67
2023/01/21 00:52:31;;;;;;;;;;;;;;;;;;4975133;28;7254;-67
2023/01/21 00:54:57;;;;;;;;;;;;;;;;;;4975747;28;6925;-67
2023/01/21 01:00:39;;;;;;;;;;;;;;;;;;4975476;28;6698;-67
2023/01/21 01:03:06;;;;;;;;;;;;;;;;;;4975366;28;7108;-67
2023/01/21 01:05:32;;;;;;;;;;;;;;;;;;4975865;28;7605;-67
2023/01/21 01:07:57;;;;;;;;;;;;;;;;;;4975808;28;7291;-67
2023/01/21 01:10:23;;;;;;;;;;;;;;;;;;4975328;28;7249;-67
2023/01/21 01:12:50;;;;;;;;;;;;;;;;;;4975574;28;8070;-67
2023/01/21 01:15:15;;;;;;;;;;;;;;;;;;4975661;28;7219;-67
2023/01/21 01:29:52;;;;;;;;;;;;;;;;;;4975607;28;6814;-67
2023/01/21 01:32:17;;;;;;;;;;;;;;;;;;4975393;28;7484;-67
2023/01/21 01:34:43;;;;;;;;;;;;;;;;;;4975430;28;7135;-67
2023/01/21 01:37:23;;;;;;;;;;;;;;;;;;4975105;28;6957;-67
2023/01/21 01:39:49;;;;;;;;;;;;;;;;;;4975379;28;6936;-67
2023/01/21 01:42:16;;;;;;;;;;;;;;;;;;4975374;28;7221;-67
2023/01/21 02:06:32;;;;;;;;;;;;;;;;;;4978364;28;6677;-67
2023/01/21 02:08:57;;;;;;;;;;;;;;;;;;4978233;28;7310;-67
2023/01/21 02:20:19;;;;;;;;;;;;;;;;;;4978808;28;6971;-69
2023/01/21 02:23:09;;;;;;;;;;;;;;;;;;4993258;28;6967;-68
2023/01/21 02:28:44;;;;;;;;;;;;;;;;;;4978491;28;6964;-67
2023/01/21 02:31:12;;;;;;;;;;;;;;;;;;4978182;28;7395;-67
2023/01/21 02:33:56;;;;;;;;;;;;;;;;;;4978197;28;7173;-67
2023/01/21 02:36:34;;;;;;;;;;;;;;;;;;4978076;28;7137;-67
2023/01/21 02:38:59;;;;;;;;;;;;;;;;;;4978116;28;7164;-67
2023/01/21 02:41:31;;;;;;;;;;;;;;;;;;4977756;28;7071;-67
2023/01/21 02:44:12;;;;;;;;;;;;;;;;;;4977954;28;7165;-67
2023/01/21 02:49:50;;;;;;;;;;;;;;;;;;4982211;28;6698;-67
2023/01/21 02:52:17;;;;;;;;;;;;;;;;;;4997265;28;6975;-67
2023/01/21 02:57:52;;;;;;;;;;;;;;;;;;4996754;28;6925;-67
2023/01/21 03:03:23;;;;;;;;;;;;;;;;;;4976791;28;7071;-67
2023/01/21 03:08:55;;;;;;;;;;;;;;;;;;4977299;28;6678;-67
2023/01/21 03:11:21;;;;;;;;;;;;;;;;;;4977448;28;7234;-67
2023/01/21 03:17:18;;;;;;;;;;;;;;;;;;4977268;28;6963;-67
2023/01/21 03:23:08;;;;;;;;;;;;;;;;;;4977526;28;6932;-67
2023/01/21 03:25:36;;;;;;;;;;;;;;;;;;4977188;28;7164;-67
2023/01/21 03:28:38;;;;;;;;;;;;;;;;;;4977211;28;7103;-67
2023/01/21 03:37:16;;;;;;;;;;;;;;;;;;4976881;28;6674;-67
2023/01/21 03:39:41;;;;;;;;;;;;;;;;;;4976893;28;7001;-67
2023/01/21 03:42:08;;;;;;;;;;;;;;;;;;4976823;28;6908;-67
2023/01/21 03:44:41;;;;;;;;;;;;;;;;;;4976891;28;7189;-67
2023/01/21 03:47:28;;;;;;;;;;;;;;;;;;4976824;28;7022;-67
2023/01/21 03:53:31;;;;;;;;;;;;;;;;;;4976379;28;6925;-67
2023/01/21 03:55:58;;;;;;;;;;;;;;;;;;4976621;28;7212;-67
2023/01/21 03:58:39;;;;;;;;;;;;;;;;;;4976688;28;7120;-67
2023/01/21 04:01:38;;;;;;;;;;;;;;;;;;4959032;28;8447;-67
2023/01/21 04:07:18;;;;;;;;;;;;;;;;;;4976289;28;6924;-68
2023/01/21 04:09:44;;;;;;;;;;;;;;;;;;4977169;28;7255;-68
2023/01/21 04:12:10;;;;;;;;;;;;;;;;;;4976297;28;6972;-67
2023/01/21 04:14:36;;;;;;;;;;;;;;;;;;4976065;28;6942;-67
2023/01/21 04:17:04;;;;;;;;;;;;;;;;;;4976738;28;7070;-68
2023/01/21 04:19:30;;;;;;;;;;;;;;;;;;4976213;28;7083;-67
2023/01/21 04:22:02;;;;;;;;;;;;;;;;;;4976139;28;7066;-68
2023/01/21 04:24:28;;;;;;;;;;;;;;;;;;4976099;28;7374;-67
2023/01/21 04:26:53;;;;;;;;;;;;;;;;;;4975394;28;7281;-67
2023/01/21 04:29:23;;;;;;;;;;;;;;;;;;4976156;28;7160;-68
2023/01/21 04:31:48;;;;;;;;;;;;;;;;;;4976613;28;7042;-67
2023/01/21 04:43:22;;;;;;;;;;;;;;;;;;4975707;28;6885;-68
2023/01/21 04:45:49;;;;;;;;;;;;;;;;;;4975884;28;7003;-68
2023/01/21 04:48:15;;;;;;;;;;;;;;;;;;4975859;28;6937;-67
2023/01/21 04:50:41;;;;;;;;;;;;;;;;;;4975439;28;7272;-68
2023/01/21 05:02:15;;;;;;;;;;;;;;;;;;4975845;28;6733;-68
2023/01/21 05:04:40;;;;;;;;;;;;;;;;;;4975281;28;7137;-68
2023/01/21 05:10:14;;;;;;;;;;;;;;;;;;4975273;28;6666;-67
2023/01/21 05:18:29;;;;;;;;;;;;;;;;;;4975805;28;6970;-67
2023/01/21 05:23:57;;;;;;;;;;;;;;;;;;4975705;28;6737;-67
2023/01/21 05:26:23;;;;;;;;;;;;;;;;;;4976461;28;6983;-67
2023/01/21 05:29:12;;;;;;;;;;;;;;;;;;4975119;28;7979;-67
2023/01/21 05:31:37;;;;;;;;;;;;;;;;;;4991051;28;6805;-67
2023/01/21 05:34:03;;;;;;;;;;;;;;;;;;4994937;28;7015;-67
2023/01/21 05:42:34;;;;;;;;;;;;;;;;;;4998343;28;6925;-67
2023/01/21 05:48:01;;;;;;;;;;;;;;;;;;4998501;28;6756;-67
2023/01/21 05:56:39;;;;;;;;;;;;;;;;;;4998009;28;6901;-67
2023/01/21 05:59:06;;;;;;;;;;;;;;;;;;4998363;28;6995;-67
2023/01/21 06:01:40;;;;;;;;;;;;;;;;;;4997781;28;7228;-67
2023/01/21 06:07:23;;;;;;;;;;;;;;;;;;4997820;28;6717;-67
2023/01/21 06:09:49;;;;;;;;;;;;;;;;;;4998166;28;7425;-67
2023/01/21 06:18:33;;;;;;;;;;;;;;;;;;4997741;28;6682;-67
2023/01/21 06:21:00;;;;;;;;;;;;;;;;;;4997666;28;7070;-67
2023/01/21 06:23:26;;;;;;;;;;;;;;;;;;4997717;28;7227;-67
2023/01/21 06:25:52;;;;;;;;;;;;;;;;;;4998249;28;7162;-70
2023/01/21 06:28:39;;;;;;;;;;;;;;;;;;4997616;28;7931;-70
2023/01/21 06:34:08;;;;;;;;;;;;;;;;;;4997474;28;6745;-70
2023/01/21 06:39:37;;;;;;;;;;;;;;;;;;4997229;28;6686;-71
2023/01/21 06:42:27;;;;;;;;;;;;;;;;;;4997306;28;7213;-71
2023/01/21 06:44:52;;;;;;;;;;;;;;;;;;4997310;28;7223;-71
2023/01/21 06:47:18;;;;;;;;;;;;;;;;;;4997695;28;7117;-71
2023/01/21 06:55:49;;;;;;;;;;;;;;;;;;4997008;28;6933;-71
2023/01/21 07:04:20;;;;;;;;;;;;;;;;;;4994764;28;6953;-71
2023/01/21 07:09:48;;;;;;;;;;;;;;;;;;4996709;28;6913;-71
2023/01/21 07:12:14;;;;;;;;;;;;;;;;;;4997022;28;7368;-70
2023/01/21 07:14:40;;;;;;;;;;;;;;;;;;4996808;28;7051;-72
2023/01/21 07:17:05;;;;;;;;;;;;;;;;;;4997010;28;7131;-71
2023/01/21 07:19:33;;;;;;;;;;;;;;;;;;4997169;28;6853;-71
2023/01/21 07:21:59;;;;;;;;;;;;;;;;;;4996668;28;7170;-71
2023/01/21 07:24:27;;;;;;;;;;;;;;;;;;4996328;28;6808;-71
2023/01/21 07:26:53;;;;;;;;;;;;;;;;;;4996584;28;7258;-71
2023/01/21 07:29:29;;;;;;;;;;;;;;;;;;4996646;28;6979;-71
2023/01/21 07:31:55;;;;;;;;;;;;;;;;;;4996526;28;7018;-71
2023/01/21 07:34:20;;;;;;;;;;;;;;;;;;4996943;28;7185;-72
2023/01/21 07:36:46;;;;;;;;;;;;;;;;;;4995248;28;8775;-72
2023/01/21 07:39:11;;;;;;;;;;;;;;;;;;4996060;28;7118;-71
2023/01/21 07:41:37;;;;;;;;;;;;;;;;;;4996178;28;7031;-72
2023/01/21 07:44:18;;;;;;;;;;;;;;;;;;4996290;28;7064;-72
2023/01/21 07:46:44;;;;;;;;;;;;;;;;;;4996897;28;6891;-72
2023/01/21 07:52:15;;;;;;;;;;;;;;;;;;4995811;28;6721;-72
2023/01/21 07:54:41;;;;;;;;;;;;;;;;;;4996131;28;7008;-71
2023/01/21 07:57:06;;;;;;;;;;;;;;;;;;4995577;28;6977;-71
2023/01/21 08:02:34;;;;;;;;;;;;;;;;;;4995745;28;6925;-71
2023/01/21 08:14:06;;;;;;;;;;;;;;;;;;4995721;28;7003;-71
2023/01/21 08:16:38;;;;;;;;;;;;;;;;;;4995330;28;6976;-71
2023/01/21 08:19:04;;;;;;;;;;;;;;;;;;4996114;28;7084;-71
2023/01/21 08:21:29;;;;;;;;;;;;;;;;;;4995454;28;7041;-71
2023/01/21 08:24:17;;;;;;;;;;;;;;;;;;4995565;28;7180;-71
2023/01/21 08:26:43;;;;;;;;;;;;;;;;;;4995491;28;7186;-71
2023/01/21 08:29:09;;;;;;;;;;;;;;;;;;4995695;28;6985;-71
2023/01/21 08:31:35;;;;;;;;;;;;;;;;;;4978524;28;8733;-71
2023/01/21 08:37:11;;;;;;;;;;;;;;;;;;4995174;28;6904;-71
2023/01/21 08:39:37;;;;;;;;;;;;;;;;;;4995396;28;7407;-71
2023/01/21 08:42:03;;;;;;;;;;;;;;;;;;4995105;28;7108;-71
2023/01/21 08:47:43;;;;;;;;;;;;;;;;;;4995161;28;6669;-71
2023/01/21 08:50:09;;;;;;;;;;;;;;;;;;4995061;28;7317;-71
2023/01/21 08:55:58;;;;;;;;;;;;;;;;;;4995148;28;6681;-71
2023/01/21 08:58:24;;;;;;;;;;;;;;;;;;4995203;28;7232;-71
2023/01/21 09:00:58;;;;;;;;;;;;;;;;;;4995281;28;7132;-71
2023/01/21 09:10:01;;;;;;;;;;;;;;;;;;4994863;28;6673;-73
2023/01/21 09:16:07;;;;;;;;;;;;;;;;;;4998866;28;6977;-73
2023/01/21 09:18:32;;;;;;;;;;;;;;;;;;4997947;28;7263;-73
2023/01/21 09:24:01;;;;;;;;;;;;;;;;;;4998681;28;6925;-73
2023/01/21 09:26:27;;;;;;;;;;;;;;;;;;4998852;28;7141;-73
2023/01/21 09:28:53;;;;;;;;;;;;;;;;;;4998260;28;6940;-73
2023/01/21 09:31:23;;;;;;;;;;;;;;;;;;4998717;28;7036;-73
2023/01/21 09:33:57;;;;;;;;;;;;;;;;;;4998639;28;7179;-73
2023/01/21 09:36:25;;;;;;;;;;;;;;;;;;4998737;28;7147;-73
2023/01/21 09:42:28;;;;;;;;;;;;;;;;;;4998206;28;6983;-74
2023/01/21 09:44:57;;;;;;;;;;;;;;;;;;4999297;28;7306;-74
2023/01/21 09:47:51;;;;;;;;;;;;;;;;;;4998377;28;7109;-74
2023/01/21 09:50:21;;;;;;;;;;;;;;;;;;4998301;28;6863;-74
2023/01/21 09:53:05;;;;;;;;;;;;;;;;;;4998219;28;7182;-74
2023/01/21 09:55:35;;;;;;;;;;;;;;;;;;4998074;28;7228;-74
2023/01/21 09:58:25;;;;;;;;;;;;;;;;;;4998245;28;7339;-75
2023/01/21 10:00:59;;;;;;;;;;;;;;;;;;4998222;28;7097;-75
2023/01/21 10:06:50;;;;;;;;;;;;;;;;;;4980254;28;6861;-75
2023/01/21 10:09:47;;;;;;;;;;;;;;;;;;4998059;28;7150;-76
2023/01/21 10:18:33;;;;;;;;;;;;;;;;;;4899780;29;6678;-75
2023/01/21 10:21:07;;;;;;;;;;;;;;;;;;4899907;29;7122;-75
2023/01/21 10:23:37;;;;;;;;;;;;;;;;;;4899459;29;7222;-75
2023/01/21 10:26:07;;;;;;;;;;;;;;;;;;4889350;29;7229;-75
2023/01/21 10:34:43;;;;;;;;;;;;;;;;;;4899801;29;6685;-79
2023/01/21 10:37:17;;;;;;;;;;;;;;;;;;4899653;29;7428;-79
2023/01/21 10:43:01;;;;;;;;;;;;;;;;;;4843975;29;6782;-79
2023/01/21 10:45:33;;;;;;;;;;;;;;;;;;4843712;29;7444;-79
2023/01/21 10:48:17;;;;;;;;;;;;;;;;;;4843834;29;7195;-80
2023/01/21 10:50:43;;;;;;;;;;;;;;;;;;4843783;29;6806;-80
2023/01/21 10:53:23;;;;;;;;;;;;;;;;;;4913091;29;7069;-80
2023/01/21 10:55:55;;;;;;;;;;;;;;;;;;4918214;29;7441;-80
2023/01/21 10:58:41;;;;;;;;;;;;;;;;;;4918068;29;7053;-80
2023/01/21 11:01:14;;;;;;;;;;;;;;;;;;4918190;29;7023;-80
2023/01/21 11:03:48;;;;;;;;;;;;;;;;;;4918799;29;7267;-80
2023/01/21 11:06:16;;;;;;;;;;;;;;;;;;4917532;29;7156;-80
2023/01/21 11:08:44;;;;;;;;;;;;;;;;;;4918020;29;7012;-81
2023/01/21 11:11:12;;;;;;;;;;;;;;;;;;4917130;29;7027;-81
2023/01/21 11:13:40;;;;;;;;;;;;;;;;;;4917952;29;7111;-80
2023/01/21 11:16:06;;;;;;;;;;;;;;;;;;4917968;29;6954;-81
2023/01/21 11:18:36;;;;;;;;;;;;;;;;;;4921662;28;6800;-80
2023/01/21 11:21:27;;;;;;;;;;;;;;;;;;4977200;28;7323;-81
2023/01/21 11:23:53;;;;;;;;;;;;;;;;;;4977290;28;7351;-80
2023/01/21 11:29:23;;;;;;;;;;;;;;;;;;4976996;28;6970;-81
2023/01/21 11:32:03;;;;;;;;;;;;;;;;;;4977149;28;6950;-80
2023/01/21 11:34:32;;;;;;;;;;;;;;;;;;4976991;28;7050;-81
2023/01/21 11:37:00;;;;;;;;;;;;;;;;;;4992356;28;7249;-81
2023/01/21 11:39:55;;;;;;;;;;;;;;;;;;4977024;28;7338;-80
2023/01/21 11:42:21;;;;;;;;;;;;;;;;;;4992489;28;8559;-80
2023/01/21 11:47:54;;;;;;;;;;;;;;;;;;4976643;28;6698;-81
2023/01/21 11:50:23;;;;;;;;;;;;;;;;;;4977714;28;7151;-82
2023/01/21 11:53:03;;;;;;;;;;;;;;;;;;4976685;28;7153;-82
2023/01/21 11:55:58;;;;;;;;;;;;;;;;;;4976754;28;7038;-82
2023/01/21 11:58:24;;;;;;;;;;;;;;;;;;4976748;28;6957;-82
2023/01/21 12:03:59;;;;;;;;;;;;;;;;;;4976577;28;6753;-81
2023/01/21 12:15:52;;;;;;;;;;;;;;;;;;4995550;28;6949;-81
2023/01/21 12:39:36;;;;;;;;;;;;;;;;;;4995163;28;7007;-75
2023/01/21 12:42:16;;;;;;;;;;;;;;;;;;4995227;28;7031;-75
2023/01/21 12:44:47;;;;;;;;;;;;;;;;;;4995264;28;7203;-75
2023/01/21 12:47:24;;;;;;;;;;;;;;;;;;4995136;28;7469;-76
2023/01/21 12:49:52;;;;;;;;;;;;;;;;;;4995264;28;6975;-76
2023/01/21 12:52:26;;;;;;;;;;;;;;;;;;4995207;28;7172;-76
2023/01/21 12:54:51;;;;;;;;;;;;;;;;;;4994600;28;7233;-76
2023/01/21 13:00:36;;;;;;;;;;;;;;;;;;4994864;28;6682;-75
2023/01/21 13:09:15;;;;;;;;;;;;;;;;;;4994797;28;7056;-76
2023/01/21 13:11:47;;;;;;;;;;;;;;;;;;4995620;28;6980;-75
2023/01/21 13:14:36;;;;;;;;;;;;;;;;;;4995037;28;7202;-75
2023/01/21 13:17:06;;;;;;;;;;;;;;;;;;4984235;28;7035;-76
2023/01/21 13:19:32;;;;;;;;;;;;;;;;;;4995022;28;7478;-76
2023/01/21 13:22:11;;;;;;;;;;;;;;;;;;4994420;28;7256;-76
2023/01/21 13:30:54;;;;;;;;;;;;;;;;;;4994686;28;6983;-76
2023/01/21 13:33:32;;;;;;;;;;;;;;;;;;4994572;28;7398;-73
2023/01/21 13:36:06;;;;;;;;;;;;;;;;;;4995086;28;7176;-73
2023/01/21 13:38:33;;;;;;;;;;;;;;;;;;4995044;28;7251;-73
2023/01/21 13:41:17;;;;;;;;;;;;;;;;;;4994728;28;7087;-73
2023/01/21 13:43:54;;;;;;;;;;;;;;;;;;4995876;28;7182;-73
2023/01/21 13:46:56;;;;;;;;;;;;;;;;;;4997029;28;7118;-74
2023/01/21 13:49:40;;;;;;;;;;;;;;;;;;5014344;28;7029;-73
2023/01/21 13:52:08;;;;;;;;;;;;;;;;;;5014553;28;7234;-73
2023/01/21 13:54:39;;;;;;;;;;;;;;;;;;5014292;28;6890;-73
2023/01/21 13:57:07;;;;;;;;;;;;;;;;;;5029780;28;7016;-73
2023/01/21 13:59:33;;;;;;;;;;;;;;;;;;5017218;28;6980;-73
2023/01/21 14:02:22;;;;;;;;;;;;;;;;;;5018048;28;6792;-73
2023/01/21 14:05:07;;;;;;;;;;;;;;;;;;5017622;28;7069;-75
2023/01/21 14:07:35;;;;;;;;;;;;;;;;;;5017773;28;7219;-75
2023/01/21 14:10:00;;;;;;;;;;;;;;;;;;5017884;28;6840;-75
2023/01/21 14:12:35;;;;;;;;;;;;;;;;;;5017695;28;7047;-75
2023/01/21 14:15:17;;;;;;;;;;;;;;;;;;5017635;28;6949;-75
2023/01/21 14:20:53;;;;;;;;;;;;;;;;;;5017248;28;7061;-75
2023/01/21 14:26:40;;;;;;;;;;;;;;;;;;5017148;28;6686;-74
2023/01/21 14:32:12;;;;;;;;;;;;;;;;;;5013801;28;6759;-75
2023/01/21 14:34:52;;;;;;;;;;;;;;;;;;5017154;28;7185;-75
2023/01/21 14:40:11;;;;;;;;;;;;;;;;;;5017107;28;6906;-75
2023/01/21 14:45:50;;;;;;;;;;;;;;;;;;5016993;28;7019;-75
2023/01/21 14:48:35;;;;;;;;;;;;;;;;;;5016950;28;7093;-75
2023/01/21 14:51:03;;;;;;;;;;;;;;;;;;4996721;28;7098;-75
2023/01/21 14:56:59;;;;;;;;;;;;;;;;;;4997045;28;6701;-75
2023/01/21 14:59:44;;;;;;;;;;;;;;;;;;4997081;28;7092;-75
2023/01/21 15:02:19;;;;;;;;;;;;;;;;;;4997459;28;6882;-75
2023/01/21 15:08:14;;;;;;;;;;;;;;;;;;4996841;28;6690;-75
2023/01/21 15:10:40;;;;;;;;;;;;;;;;;;4996008;28;6956;-74
2023/01/21 15:13:08;;;;;;;;;;;;;;;;;;4996511;28;8156;-74
2023/01/21 15:15:39;;;;;;;;;;;;;;;;;;4996868;28;7390;-74
2023/01/21 15:21:31;;;;;;;;;;;;;;;;;;4996710;28;6948;-74
2023/01/21 15:27:33;;;;;;;;;;;;;;;;;;4996729;28;6782;-74
2023/01/21 15:29:59;;;;;;;;;;;;;;;;;;4996753;28;7041;-74
2023/01/21 15:38:30;;;;;;;;;;;;;;;;;;4996103;28;6917;-74
2023/01/21 15:41:06;;;;;;;;;;;;;;;;;;4996423;28;7145;-74
2023/01/21 15:43:53;;;;;;;;;;;;;;;;;;4996320;28;6956;-74
2023/01/21 15:52:34;;;;;;;;;;;;;;;;;;4996197;28;6971;-74
2023/01/21 15:55:18;;;;;;;;;;;;;;;;;;4996146;28;7347;-74
2023/01/21 15:57:46;;;;;;;;;;;;;;;;;;4995976;28;7323;-74
2023/01/21 16:00:38;;;;;;;;;;;;;;;;;;4995805;28;6918;-74
2023/01/21 16:03:09;;;;;;;;;;;;;;;;;;4995576;28;7221;-73
2023/01/21 16:08:48;;;;;;;;;;;;;;;;;;4995627;28;6945;-73
2023/01/21 16:14:16;;;;;;;;;;;;;;;;;;4996251;28;7071;-73
2023/01/21 16:16:45;;;;;;;;;;;;;;;;;;4995784;28;7244;-73
2023/01/21 16:19:33;;;;;;;;;;;;;;;;;;4995786;28;7056;-73
2023/01/21 16:22:06;;;;;;;;;;;;;;;;;;5014219;28;6932;-73
2023/01/21 16:30:38;;;;;;;;;;;;;;;;;;5014861;28;7040;-73
2023/01/21 16:33:15;;;;;;;;;;;;;;;;;;5015076;28;6872;-73
2023/01/21 16:38:36;;;;;;;;;;;;;;;;;;5015489;28;6940;-73
2023/01/21 16:41:11;;;;;;;;;;;;;;;;;;5014890;28;7018;-73
2023/01/21 16:43:44;;;;;;;;;;;;;;;;;;5014975;28;7047;-73
2023/01/21 16:46:17;;;;;;;;;;;;;;;;;;5011472;28;7301;-73
2023/01/21 16:48:48;;;;;;;;;;;;;;;;;;4975887;28;6963;-73
2023/01/21 16:57:22;;;;;;;;;;;;;;;;;;4975484;28;6922;-73
2023/01/21 16:59:48;;;;;;;;;;;;;;;;;;4975429;28;7145;-73
2023/01/21 17:05:16;;;;;;;;;;;;;;;;;;4975503;28;6974;-73
2023/01/21 17:07:44;;;;;;;;;;;;;;;;;;4975775;28;7429;-73
2023/01/21 17:10:18;;;;;;;;;;;;;;;;;;4975641;28;7347;-73
2023/01/21 17:15:58;;;;;;;;;;;;;;;;;;4975284;28;6944;-73
2023/01/21 17:18:35;;;;;;;;;;;;;;;;;;4975693;28;7145;-73
2023/01/21 17:21:06;;;;;;;;;;;;;;;;;;4975148;28;7737;-73
2023/01/21 17:26:54;;;;;;;;;;;;;;;;;;4956001;29;6753;-73
2023/01/21 17:32:31;;;;;;;;;;;;;;;;;;4956433;29;6789;-74
2023/01/21 17:35:17;;;;;;;;;;;;;;;;;;4959298;28;7399;-74
2023/01/21 17:38:01;;;;;;;;;;;;;;;;;;4960036;28;7286;-73
2023/01/21 17:43:29;;;;;;;;;;;;;;;;;;4978910;28;6741;-73
2023/01/21 17:58:31;;;;;;;;;;;;;;;;;;5017743;28;6678;-73
2023/01/21 18:00:59;;;;;;;;;;;;;;;;;;5017832;28;7153;-73
2023/01/21 18:03:38;;;;;;;;;;;;;;;;;;5017671;28;7473;-73
2023/01/21 18:06:09;;;;;;;;;;;;;;;;;;5017792;28;7426;-73
2023/01/21 18:15:13;;;;;;;;;;;;;;;;;;5017374;28;6996;-73
2023/01/21 18:17:41;;;;;;;;;;;;;;;;;;5017640;28;7192;-73
2023/01/21 18:20:39;;;;;;;;;;;;;;;;;;5017584;28;7239;-73
2023/01/21 18:23:05;;;;;;;;;;;;;;;;;;5017447;28;6953;-73
2023/01/21 18:26:07;;;;;;;;;;;;;;;;;;5017499;28;7429;-73
2023/01/21 18:28:32;;;;;;;;;;;;;;;;;;5018141;28;6948;-73
2023/01/21 18:30:58;;;;;;;;;;;;;;;;;;5017478;28;6987;-73
2023/01/21 18:36:32;;;;;;;;;;;;;;;;;;5017061;28;6697;-73
2023/01/21 18:38:58;;;;;;;;;;;;;;;;;;5015998;28;8359;-73
2023/01/21 18:41:25;;;;;;;;;;;;;;;;;;5017116;28;7146;-73
2023/01/21 18:43:50;;;;;;;;;;;;;;;;;;5017381;28;7403;-73
2023/01/21 18:46:22;;;;;;;;;;;;;;;;;;5016660;28;7089;-72
2023/01/21 18:48:47;;;;;;;;;;;;;;;;;;5016792;28;7077;-72
2023/01/21 18:51:16;;;;;;;;;;;;;;;;;;4997480;28;7440;-73
2023/01/21 18:56:45;;;;;;;;;;;;;;;;;;5016789;28;6922;-73
2023/01/21 18:59:13;;;;;;;;;;;;;;;;;;5016877;28;7178;-72
2023/01/21 19:01:51;;;;;;;;;;;;;;;;;;5016546;28;7262;-72
2023/01/21 19:04:17;;;;;;;;;;;;;;;;;;5016769;28;7028;-72
2023/01/21 19:06:45;;;;;;;;;;;;;;;;;;5016706;28;7293;-72
2023/01/21 19:15:09;;;;;;;;;;;;;;;;;;5016617;28;6962;-72
2023/01/21 19:21:00;;;;;;;;;;;;;;;;;;5015386;28;6725;-72
2023/01/21 19:23:25;;;;;;;;;;;;;;;;;;5021028;28;7173;-72
2023/01/21 19:31:59;;;;;;;;;;;;;;;;;;5016075;28;6925;-72
2023/01/21 19:34:25;;;;;;;;;;;;;;;;;;5016208;28;6974;-72
2023/01/21 19:37:13;;;;;;;;;;;;;;;;;;5016023;28;6910;-72
2023/01/21 19:39:39;;;;;;;;;;;;;;;;;;5015839;28;7280;-72
2023/01/21 19:42:04;;;;;;;;;;;;;;;;;;5015781;28;7166;-72
2023/01/21 19:47:57;;;;;;;;;;;;;;;;;;5015640;28;6701;-72
2023/01/21 19:50:24;;;;;;;;;;;;;;;;;;5015345;28;7188;-72
2023/01/21 19:52:51;;;;;;;;;;;;;;;;;;5015799;28;6964;-72
2023/01/21 19:58:25;;;;;;;;;;;;;;;;;;5015490;28;7031;-72
2023/01/21 20:04:19;;;;;;;;;;;;;;;;;;5009496;28;6733;-72
2023/01/21 20:06:45;;;;;;;;;;;;;;;;;;4996839;28;7070;-72
2023/01/21 20:09:16;;;;;;;;;;;;;;;;;;4995606;28;8152;-72
2023/01/21 20:11:43;;;;;;;;;;;;;;;;;;4995828;28;7387;-72
2023/01/21 20:14:08;;;;;;;;;;;;;;;;;;5005158;28;6841;-72
2023/01/21 20:16:51;;;;;;;;;;;;;;;;;;5015229;28;7139;-72
2023/01/21 20:19:18;;;;;;;;;;;;;;;;;;5015380;28;7059;-72
2023/01/21 20:24:51;;;;;;;;;;;;;;;;;;4995512;28;6937;-72
2023/01/21 20:27:16;;;;;;;;;;;;;;;;;;4999912;28;7111;-72
2023/01/21 20:29:42;;;;;;;;;;;;;;;;;;5015115;28;7182;-72
2023/01/21 20:35:10;;;;;;;;;;;;;;;;;;5014837;28;7036;-72
2023/01/21 20:37:53;;;;;;;;;;;;;;;;;;5015089;28;7169;-73
2023/01/21 20:40:23;;;;;;;;;;;;;;;;;;5014719;28;7415;-72
2023/01/21 20:43:01;;;;;;;;;;;;;;;;;;5014436;28;7169;-72
2023/01/21 20:45:29;;;;;;;;;;;;;;;;;;5014998;28;7150;-72
2023/01/21 20:51:03;;;;;;;;;;;;;;;;;;5014446;28;7112;-72
2023/01/21 20:53:29;;;;;;;;;;;;;;;;;;5010378;28;7181;-73
2023/01/21 20:55:55;;;;;;;;;;;;;;;;;;5007712;28;7119;-72
2023/01/21 20:58:21;;;;;;;;;;;;;;;;;;5012647;28;6995;-73
2023/01/21 21:03:37;;;;;;;;;;;;;;;;;;4994766;28;7025;-72
2023/01/21 21:06:34;;;;;;;;;;;;;;;;;;5005662;28;7165;-72
2023/01/21 21:08:59;;;;;;;;;;;;;;;;;;5016210;28;7168;-72
2023/01/21 21:11:45;;;;;;;;;;;;;;;;;;5018489;28;7172;-73
2023/01/21 21:14:11;;;;;;;;;;;;;;;;;;5018560;28;7957;-73
2023/01/21 21:16:38;;;;;;;;;;;;;;;;;;5018647;28;7106;-73
2023/01/21 21:19:08;;;;;;;;;;;;;;;;;;5018546;28;6969;-72
2023/01/21 21:21:33;;;;;;;;;;;;;;;;;;5018666;28;7470;-72
2023/01/21 21:23:59;;;;;;;;;;;;;;;;;;5018721;28;7172;-72
2023/01/21 21:26:36;;;;;;;;;;;;;;;;;;5018654;28;7173;-72
2023/01/21 21:29:02;;;;;;;;;;;;;;;;;;5018654;28;6864;-73
2023/01/21 21:31:44;;;;;;;;;;;;;;;;;;5019455;28;6848;-73
2023/01/21 21:34:10;;;;;;;;;;;;;;;;;;5018451;28;7079;-73
2023/01/21 21:48:36;;;;;;;;;;;;;;;;;;5018011;28;6929;-72
2023/01/21 21:51:02;;;;;;;;;;;;;;;;;;5015991;28;7180;-73
2023/01/21 21:53:45;;;;;;;;;;;;;;;;;;5017240;28;6996;-73
2023/01/21 21:56:15;;;;;;;;;;;;;;;;;;5017473;28;7016;-73
2023/01/21 22:01:44;;;;;;;;;;;;;;;;;;5017416;28;6703;-72
2023/01/21 22:04:23;;;;;;;;;;;;;;;;;;5017988;28;7441;-72
2023/01/21 22:06:49;;;;;;;;;;;;;;;;;;5017869;28;6950;-72
2023/01/21 22:09:30;;;;;;;;;;;;;;;;;;5017960;28;6936;-72
2023/01/21 22:11:55;;;;;;;;;;;;;;;;;;5017828;28;7184;-72
2023/01/21 22:23:32;;;;;;;;;;;;;;;;;;5017324;28;6734;-72
2023/01/21 22:29:18;;;;;;;;;;;;;;;;;;5017230;28;6685;-72
2023/01/21 22:31:43;;;;;;;;;;;;;;;;;;5017428;28;7032;-72
2023/01/21 22:34:14;;;;;;;;;;;;;;;;;;5017379;28;7156;-72
2023/01/21 22:36:45;;;;;;;;;;;;;;;;;;5017385;28;7071;-72
2023/01/21 22:39:11;;;;;;;;;;;;;;;;;;5017216;28;6928;-72
2023/01/21 22:41:36;;;;;;;;;;;;;;;;;;5017100;28;7035;-72
2023/01/21 22:44:02;;;;;;;;;;;;;;;;;;5017153;28;6996;-72
2023/01/21 22:46:32;;;;;;;;;;;;;;;;;;5017706;28;7382;-72
2023/01/21 22:48:58;;;;;;;;;;;;;;;;;;5017063;28;6816;-72
2023/01/21 22:54:28;;;;;;;;;;;;;;;;;;5016433;28;7104;-72
2023/01/21 22:56:57;;;;;;;;;;;;;;;;;;5015731;28;6917;-71
2023/01/21 23:02:45;;;;;;;;;;;;;;;;;;4995358;28;7193;-72
2023/01/21 23:05:10;;;;;;;;;;;;;;;;;;4994976;28;7263;-72
2023/01/21 23:07:38;;;;;;;;;;;;;;;;;;4995272;28;7238;-72
2023/01/21 23:10:04;;;;;;;;;;;;;;;;;;4994947;28;7113;-72
2023/01/21 23:12:40;;;;;;;;;;;;;;;;;;4994908;28;7085;-72
2023/01/21 23:15:06;;;;;;;;;;;;;;;;;;4994962;28;7114;-72
2023/01/21 23:17:32;;;;;;;;;;;;;;;;;;4994839;28;7127;-72
2023/01/21 23:19:58;;;;;;;;;;;;;;;;;;4994860;28;6820;-72
2023/01/21 23:25:33;;;;;;;;;;;;;;;;;;4994693;28;6693;-72
2023/01/21 23:27:59;;;;;;;;;;;;;;;;;;4996580;28;7083;-72
2023/01/21 23:30:26;;;;;;;;;;;;;;;;;;5005268;28;6927;-72
2023/01/21 23:32:51;;;;;;;;;;;;;;;;;;4994382;28;7364;-72
2023/01/21 23:35:24;;;;;;;;;;;;;;;;;;5015301;28;6817;-72
2023/01/21 23:37:49;;;;;;;;;;;;;;;;;;5015080;28;7998;-72
2023/01/21 23:40:18;;;;;;;;;;;;;;;;;;5015549;28;7110;-72
2023/01/21 23:42:47;;;;;;;;;;;;;;;;;;5009853;28;6999;-72
2023/01/21 23:45:33;;;;;;;;;;;;;;;;;;5014402;28;8429;-72
2023/01/21 23:47:58;;;;;;;;;;;;;;;;;;4995959;28;7080;-72
2023/01/21 23:53:34;;;;;;;;;;;;;;;;;;4995519;28;6690;-72
2023/01/21 23:56:09;;;;;;;;;;;;;;;;;;5006474;28;7537;-72
2023/01/21 23:58:35;;;;;;;;;;;;;;;;;;5015212;28;7091;-72
